Time,TemperatureF,DewpointF,PressureIn,WindDirection,WindDirectionDegrees,WindSpeedMPH,WindSpeedGustMPH,Humidity,HourlyPrecipIn,Conditions,Clouds,dailyrainin,SoftwareType,DateUTC
2013-09-02 00:00:00,72.4,65.9,30.10,NNW,335,2.0,4.0,80,0.00,CLR,,0.00,WeatherDisplay:10.37,2013-09-01 22:00:00,
2013-09-02 08:00:00,72.3,59.9,30.10,NNE,13,3.0,6.0,65,0.00,CLR,,0.00,WeatherDisplay:10.37,2013-09-02 06:00:00,
2013-09-02 08:10:00,73.0,60.1,30.11,North,3,2.0,5.0,64,0.00,CLR,,0.00,WeatherDisplay:10.37,2013-09-02 06:10:00,
2013-09-02 08:20:00,73.7,60.3,30.11,NNE,22,2.0,4.0,63,0.00,CLR,,0.00,WeatherDisplay:10.37,2013-09-02 06:20:00,
2013-09-02 08:30:00,74.7,59.9,30.11,NNE,30,1.0,2.0,60,0.00,CLR,,0.00,WeatherDisplay:10.37,2013-09-02 06:30:00,
2013-09-02 08:40:00,75.4,59.6,30.11,NNE,12,1.0,3.0,58,0.00,CLR,,0.00,WeatherDisplay:10.37,2013-09-02 06:40:00,
2013-09-02 08:50:00,76.5,61.1,30.11,ENE,72,1.0,3.0,59,0.00,CLR,,0.00,WeatherDisplay:10.37,2013-09-02 06:50:00,
2013-09-02 09:00:00,77.3,60.9,30.12,South,177,0.0,3.0,57,0.00,CLR,,0.00,WeatherDisplay:10.37,2013-09-02 07:00:00,
2013-09-02 09:10:00,79.0,61.5,30.11,SE,141,1.0,3.0,55,0.00,CLR,,0.00,WeatherDisplay:10.37,2013-09-02 07:10:00,
2013-09-02 09:20:00,78.6,60.6,30.12,SSW,193,2.0,4.0,54,0.00,CLR,,0.00,WeatherDisplay:10.37,2013-09-02 07:20:00,
2013-09-02 09:30:00,78.4,59.9,30.12,SE,141,3.0,5.0,53,0.00,CLR,,0.00,WeatherDisplay:10.37,2013-09-02 07:30:00,
2013-09-02 09:40:00,78.0,60.0,30.12,SE,145,1.0,5.0,54,0.00,CLR,,0.00,WeatherDisplay:10.37,2013-09-02 07:40:00,
2013-09-02 09:50:00,77.9,59.4,30.13,ESE,116,2.0,5.0,53,0.00,CLR,,0.00,WeatherDisplay:10.37,2013-09-02 07:50:00,
2013-09-02 10:00:00,78.4,59.8,30.13,SE,137,2.0,4.0,53,0.00,CLR,,0.00,WeatherDisplay:10.37,2013-09-02 08:00:00,
2013-09-02 10:10:00,78.1,60.1,30.14,SSE,151,3.0,7.0,54,0.00,CLR,,0.00,WeatherDisplay:10.37,2013-09-02 08:10:00,
2013-09-02 10:20:00,78.1,60.6,30.14,ESE,117,2.0,6.0,55,0.00,CLR,,0.00,WeatherDisplay:10.37,2013-09-02 08:20:00,
2013-09-02 10:30:00,78.8,60.2,30.14,SE,134,3.0,5.0,53,0.00,CLR,,0.00,WeatherDisplay:10.37,2013-09-02 08:30:00,
2013-09-02 10:40:00,79.4,60.3,30.14,SSE,153,1.0,5.0,52,0.00,CLR,,0.00,WeatherDisplay:10.37,2013-09-02 08:40:00,
2013-09-02 10:50:00,79.4,59.2,30.14,ESE,106,2.0,4.0,50,0.00,CLR,,0.00,WeatherDisplay:10.37,2013-09-02 08:50:00,
2013-09-02 11:00:00,79.4,59.7,30.14,East,87,1.0,5.0,51,0.00,CLR,,0.00,WeatherDisplay:10.37,2013-09-02 09:00:00,
2013-09-02 11:10:00,80.3,59.4,30.14,South,171,2.0,5.0,49,0.00,CLR,,0.00,WeatherDisplay:10.37,2013-09-02 09:10:00,
2013-09-02 11:20:00,80.5,58.5,30.14,SSE,147,3.0,7.0,47,0.00,CLR,,0.00,WeatherDisplay:10.37,2013-09-02 09:20:00,
2013-09-02 11:30:00,80.4,58.3,30.14,SSE,152,3.0,6.0,47,0.00,CLR,,0.00,WeatherDisplay:10.37,2013-09-02 09:30:00,
2013-09-02 11:40:00,80.9,58.7,30.14,SSE,158,0.0,6.0,47,0.00,CLR,,0.00,WeatherDisplay:10.37,2013-09-02 09:40:00,
2013-09-02 11:50:00,80.4,58.3,30.14,SE,126,3.0,6.0,47,0.00,CLR,,0.00,WeatherDisplay:10.37,2013-09-02 09:50:00,
2013-09-02 12:00:00,81.8,59.6,30.14,SE,133,0.0,5.0,47,0.00,CLR,,0.00,WeatherDisplay:10.37,2013-09-02 10:00:00,
2013-09-02 12:10:00,82.0,61.5,30.14,South,182,5.0,9.0,50,0.00,CLR,,0.00,WeatherDisplay:10.37,2013-09-02 10:10:00,
2013-09-02 12:20:00,82.2,61.1,30.13,SSW,205,2.0,7.0,49,0.00,CLR,,0.00,WeatherDisplay:10.37,2013-09-02 10:20:00,
2013-09-02 12:30:00,82.9,61.2,30.13,NNW,337,2.0,8.0,48,0.00,CLR,,0.00,WeatherDisplay:10.37,2013-09-02 10:30:00,
2013-09-02 12:40:00,83.0,60.7,30.13,West,261,3.0,7.0,47,0.00,CLR,,0.00,WeatherDisplay:10.37,2013-09-02 10:40:00,
2013-09-02 12:50:00,82.3,61.2,30.13,WSW,257,2.0,10.0,49,0.00,CLR,,0.00,WeatherDisplay:10.37,2013-09-02 10:50:00,
2013-09-02 13:00:00,81.9,60.3,30.13,WSW,252,5.0,10.0,48,0.00,CLR,,0.00,WeatherDisplay:10.37,2013-09-02 11:00:00,
2013-09-02 13:10:00,81.6,59.4,30.13,WSW,258,6.0,10.0,47,0.00,CLR,,0.00,WeatherDisplay:10.37,2013-09-02 11:10:00,
2013-09-02 13:20:00,81.0,59.4,30.13,SW,218,6.0,13.0,48,0.00,CLR,,0.00,WeatherDisplay:10.37,2013-09-02 11:20:00,
2013-09-02 13:30:00,81.2,59.7,30.13,West,259,3.0,9.0,48,0.00,CLR,,0.00,WeatherDisplay:10.37,2013-09-02 11:30:00,
2013-09-02 13:40:00,81.4,59.8,30.13,SW,225,5.0,10.0,48,0.00,CLR,,0.00,WeatherDisplay:10.37,2013-09-02 11:40:00,
2013-09-02 13:50:00,81.4,59.8,30.13,SW,222,2.0,13.0,48,0.00,CLR,,0.00,WeatherDisplay:10.37,2013-09-02 11:50:00,
2013-09-02 14:00:00,81.2,59.6,30.13,SW,234,2.0,12.0,48,0.00,CLR,,0.00,WeatherDisplay:10.37,2013-09-02 12:00:00,
2013-09-02 14:10:00,81.8,60.2,30.13,WSW,257,2.0,9.0,48,0.00,CLR,,0.00,WeatherDisplay:10.37,2013-09-02 12:10:00,
2013-09-02 14:20:00,81.1,59.6,30.12,West,267,5.0,9.0,48,0.00,CLR,,0.00,WeatherDisplay:10.37,2013-09-02 12:20:00,
2013-09-02 14:30:00,81.6,59.4,30.12,WSW,238,2.0,9.0,47,0.00,CLR,,0.00,WeatherDisplay:10.37,2013-09-02 12:30:00,
2013-09-02 14:40:00,81.6,59.4,30.12,West,260,3.0,9.0,47,0.00,CLR,,0.00,WeatherDisplay:10.37,2013-09-02 12:40:00,
2013-09-02 14:50:00,81.7,60.1,30.12,SW,226,2.0,10.0,48,0.00,CLR,,0.00,WeatherDisplay:10.37,2013-09-02 12:50:00,
2013-09-02 15:00:00,81.9,59.7,30.12,West,264,2.0,7.0,47,0.00,CLR,,0.00,WeatherDisplay:10.37,2013-09-02 13:00:00,
2013-09-02 15:10:00,82.0,60.4,30.12,WSW,255,3.0,10.0,48,0.00,CLR,,0.00,WeatherDisplay:10.37,2013-09-02 13:10:00,
2013-09-02 15:20:00,81.2,60.8,30.11,West,273,5.0,12.0,50,0.00,CLR,,0.00,WeatherDisplay:10.37,2013-09-02 13:20:00,
2013-09-02 15:30:00,80.8,61.5,30.11,West,279,5.0,12.0,52,0.00,CLR,,0.00,WeatherDisplay:10.37,2013-09-02 13:30:00,
2013-09-02 15:40:00,81.4,61.5,30.11,SW,218,5.0,9.0,51,0.00,CLR,,0.00,WeatherDisplay:10.37,2013-09-02 13:40:00,
2013-09-02 15:50:00,80.7,62.0,30.11,West,261,5.0,12.0,53,0.00,CLR,,0.00,WeatherDisplay:10.37,2013-09-02 13:50:00,
2013-09-02 16:00:00,80.5,62.3,30.11,WSW,255,5.0,12.0,54,0.00,CLR,,0.00,WeatherDisplay:10.37,2013-09-02 14:00:00,
2013-09-02 16:10:00,80.7,62.5,30.11,WSW,250,2.0,14.0,54,0.00,CLR,,0.00,WeatherDisplay:10.37,2013-09-02 14:10:00,
2013-09-02 16:20:00,81.0,63.3,30.11,WSW,249,5.0,12.0,55,0.00,CLR,,0.00,WeatherDisplay:10.37,2013-09-02 14:20:00,
2013-09-02 16:30:00,81.0,62.2,30.11,West,276,7.0,10.0,53,0.00,CLR,,0.00,WeatherDisplay:10.37,2013-09-02 14:30:00,
2013-09-02 16:40:00,81.4,61.0,30.11,West,266,3.0,12.0,50,0.00,CLR,,0.00,WeatherDisplay:10.37,2013-09-02 14:40:00,
2013-09-02 16:50:00,81.7,58.9,30.11,West,265,6.0,10.0,46,0.00,CLR,,0.00,WeatherDisplay:10.37,2013-09-02 14:50:00,
2013-09-02 17:00:00,80.8,58.1,30.11,NW,306,7.0,12.0,46,0.00,CLR,,0.00,WeatherDisplay:10.37,2013-09-02 15:00:00,
2013-09-02 17:10:00,80.6,58.5,30.11,WNW,301,9.0,12.0,47,0.00,CLR,,0.00,WeatherDisplay:10.37,2013-09-02 15:10:00,
2013-09-02 17:20:00,80.4,58.9,30.11,NW,321,9.0,14.0,48,0.00,CLR,,0.00,WeatherDisplay:10.37,2013-09-02 15:20:00,
2013-09-02 17:30:00,79.7,58.3,30.11,NW,320,8.0,15.0,48,0.00,CLR,,0.00,WeatherDisplay:10.37,2013-09-02 15:30:00,
2013-09-02 17:40:00,79.3,59.1,30.11,WNW,288,9.0,15.0,50,0.00,CLR,,0.00,WeatherDisplay:10.37,2013-09-02 15:40:00,
2013-09-02 17:50:00,78.8,60.8,30.11,WNW,303,9.0,16.0,54,0.00,CLR,,0.00,WeatherDisplay:10.37,2013-09-02 15:50:00,
2013-09-02 18:00:00,78.7,60.7,30.11,WNW,301,8.0,15.0,54,0.00,CLR,,0.00,WeatherDisplay:10.37,2013-09-02 16:00:00,
2013-09-02 18:10:00,78.8,61.3,30.12,WNW,299,8.0,12.0,55,0.00,CLR,,0.00,WeatherDisplay:10.37,2013-09-02 16:10:00,
2013-09-02 18:20:00,78.5,61.0,30.12,WNW,300,8.0,13.0,55,0.00,CLR,,0.00,WeatherDisplay:10.37,2013-09-02 16:20:00,
2013-09-02 18:30:00,78.2,61.2,30.12,NW,310,7.0,13.0,56,0.00,CLR,,0.00,WeatherDisplay:10.37,2013-09-02 16:30:00,
2013-09-02 18:40:00,77.9,61.9,30.12,WNW,289,9.0,16.0,58,0.00,CLR,,0.00,WeatherDisplay:10.37,2013-09-02 16:40:00,
2013-09-02 18:50:00,77.4,62.9,30.12,NW,307,8.0,14.0,61,0.00,CLR,,0.00,WeatherDisplay:10.37,2013-09-02 16:50:00,
2013-09-02 19:00:00,76.9,64.7,30.12,WNW,299,10.0,16.0,66,0.00,CLR,,0.00,WeatherDisplay:10.37,2013-09-02 17:00:00,
2013-09-02 19:10:00,76.5,65.1,30.12,WNW,300,6.0,13.0,68,0.00,CLR,,0.00,WeatherDisplay:10.37,2013-09-02 17:10:00,
2013-09-02 19:20:00,75.9,65.8,30.12,NW,315,5.0,12.0,71,0.00,CLR,,0.00,WeatherDisplay:10.37,2013-09-02 17:20:00,
2013-09-02 19:30:00,75.6,66.3,30.12,WNW,303,6.0,13.0,73,0.00,CLR,,0.00,WeatherDisplay:10.37,2013-09-02 17:30:00,
2013-09-02 19:40:00,75.2,66.7,30.13,NW,309,6.0,15.0,75,0.00,CLR,,0.00,WeatherDisplay:10.37,2013-09-02 17:40:00,
2013-09-02 19:50:00,74.9,66.8,30.13,NW,321,6.0,13.0,76,0.00,CLR,,0.00,WeatherDisplay:10.37,2013-09-02 17:50:00,
2013-09-02 20:00:00,74.8,66.7,30.14,NNW,329,6.0,13.0,76,0.00,CLR,,0.00,WeatherDisplay:10.37,2013-09-02 18:00:00,
2013-09-02 20:10:00,74.7,67.0,30.14,NW,316,5.0,9.0,77,0.00,CLR,,0.00,WeatherDisplay:10.37,2013-09-02 18:10:00,
2013-09-02 20:20:00,74.6,66.9,30.15,NW,326,6.0,8.0,77,0.00,CLR,,0.00,WeatherDisplay:10.37,2013-09-02 18:20:00,
2013-09-02 20:30:00,74.7,66.2,30.15,NNW,328,6.0,8.0,75,0.00,CLR,,0.00,WeatherDisplay:10.37,2013-09-02 18:30:00,
2013-09-02 20:40:00,74.9,65.7,30.15,NW,320,2.0,7.0,73,0.00,CLR,,0.00,WeatherDisplay:10.37,2013-09-02 18:40:00,
2013-09-02 20:50:00,75.1,64.6,30.16,NW,305,2.0,8.0,70,0.00,CLR,,0.00,WeatherDisplay:10.37,2013-09-02 18:50:00,
2013-09-02 21:00:00,75.3,63.6,30.16,WNW,289,3.0,5.0,67,0.00,CLR,,0.00,WeatherDisplay:10.37,2013-09-02 19:00:00,
2013-09-02 21:10:00,75.4,64.9,30.16,WNW,285,2.0,3.0,70,0.00,CLR,,0.00,WeatherDisplay:10.37,2013-09-02 19:10:00,
2013-09-02 21:20:00,75.1,63.4,30.17,NW,313,1.0,3.0,67,0.00,CLR,,0.00,WeatherDisplay:10.37,2013-09-02 19:20:00,
2013-09-02 21:30:00,75.2,61.7,30.17,NW,318,1.0,5.0,63,0.00,CLR,,0.00,WeatherDisplay:10.37,2013-09-02 19:30:00,
2013-09-02 21:40:00,75.3,61.4,30.17,NNW,342,1.0,3.0,62,0.00,CLR,,0.00,WeatherDisplay:10.37,2013-09-02 19:40:00,
2013-09-02 21:50:00,75.4,61.5,30.17,NNW,333,2.0,3.0,62,0.00,CLR,,0.00,WeatherDisplay:10.37,2013-09-02 19:50:00,
2013-09-02 22:00:00,75.4,62.4,30.17,NNW,328,2.0,4.0,64,0.00,CLR,,0.00,WeatherDisplay:10.37,2013-09-02 20:00:00,
2013-09-02 22:10:00,74.7,64.3,30.17,NNW,346,5.0,7.0,70,0.00,CLR,,0.00,WeatherDisplay:10.37,2013-09-02 20:10:00,
2013-09-02 22:20:00,74.4,64.7,30.17,NNE,21,3.0,7.0,72,0.00,CLR,,0.00,WeatherDisplay:10.37,2013-09-02 20:20:00,
2013-09-02 22:30:00,74.6,64.6,30.17,NNE,30,6.0,8.0,71,0.00,CLR,,0.00,WeatherDisplay:10.37,2013-09-02 20:30:00,
2013-09-02 22:40:00,74.7,64.3,30.18,NNE,30,5.0,9.0,70,0.00,CLR,,0.00,WeatherDisplay:10.37,2013-09-02 20:40:00,
2013-09-02 22:50:00,74.9,64.0,30.18,North,10,3.0,7.0,69,0.00,CLR,,0.00,WeatherDisplay:10.37,2013-09-02 20:50:00,
2013-09-02 23:00:00,75.2,62.6,30.18,NNE,33,7.0,10.0,65,0.00,CLR,,0.00,WeatherDisplay:10.37,2013-09-02 21:00:00,
2013-09-02 23:10:00,75.4,61.5,30.18,NNE,30,7.0,12.0,62,0.00,CLR,,0.00,WeatherDisplay:10.37,2013-09-02 21:10:00,
2013-09-02 23:20:00,75.6,60.3,30.18,NE,43,7.0,14.0,59,0.00,CLR,,0.00,WeatherDisplay:10.37,2013-09-02 21:20:00,
2013-09-02 23:30:00,75.6,59.8,30.18,NNE,30,8.0,15.0,58,0.00,CLR,,0.00,WeatherDisplay:10.37,2013-09-02 21:30:00,
2013-09-02 23:40:00,75.4,60.1,30.18,NE,36,8.0,12.0,59,0.00,CLR,,0.00,WeatherDisplay:10.37,2013-09-02 21:40:00,